Time;durP1;ratioP1;P1;durP2;ratioP2;P2;SDS_P1;SDS_P2;PMS_P1;PMS_P2;Temp;Humidity;BMP_temperature;BMP_pressure;BME280_temperature;BME280_humidity;BME280_pressure;Samples;Min_cycle;Max_cycle;Signal;HPM_P1;HPM_P2
2022/10/15 00:01:38;;;;;;;18.13;11.82;;;12.50;99.90;;;;;;5007348;28;20038;-56
2022/10/15 00:04:03;;;;;;;19.33;12.68;;;12.50;99.90;;;;;;5017505;28;20722;-57
2022/10/15 00:06:29;;;;;;;21.75;12.23;;;12.50;99.90;;;;;;5006053;28;20029;-57
2022/10/15 00:08:54;;;;;;;19.75;12.35;;;12.50;99.90;;;;;;5019674;28;20037;-57
2022/10/15 00:11:24;;;;;;;18.02;12.35;;;12.50;99.90;;;;;;5026373;28;20892;-57
2022/10/15 00:13:55;;;;;;;19.73;13.43;;;12.60;99.90;;;;;;5026446;28;20025;-55
2022/10/15 00:16:22;;;;;;;20.55;14.18;;;12.60;99.90;;;;;;5026598;28;20029;-57
2022/10/15 00:18:48;;;;;;;18.00;13.07;;;12.60;99.90;;;;;;5025982;28;20113;-52
2022/10/15 00:21:16;;;;;;;18.60;13.25;;;12.60;99.90;;;;;;5026055;28;20044;-55
2022/10/15 00:23:42;;;;;;;18.83;12.45;;;12.70;99.90;;;;;;5026053;28;20039;-57
2022/10/15 00:26:13;;;;;;;18.77;12.60;;;12.70;99.90;;;;;;5026003;28;20029;-56
2022/10/15 00:28:39;;;;;;;21.27;13.80;;;12.70;99.90;;;;;;5026046;28;20022;-55
2022/10/15 00:31:09;;;;;;;20.15;14.30;;;12.70;99.90;;;;;;5025761;28;20029;-57
2022/10/15 00:33:34;;;;;;;21.27;14.48;;;12.70;99.90;;;;;;5026483;28;20021;-54
2022/10/15 00:36:10;;;;;;;19.08;13.45;;;12.80;99.90;;;;;;5026369;28;20028;-57
2022/10/15 00:38:35;;;;;;;21.67;13.20;;;12.70;99.90;;;;;;5026478;28;20033;-57
2022/10/15 00:41:02;;;;;;;18.33;12.55;;;12.70;99.90;;;;;;5026180;28;20033;-57
2022/10/15 00:43:55;;;;;;;21.08;14.90;;;12.70;99.90;;;;;;5025883;28;20021;-58
2022/10/15 00:46:34;;;;;;;23.65;13.82;;;12.70;99.90;;;;;;5023831;28;20045;-57
2022/10/15 00:49:16;;;;;;;21.67;13.38;;;12.70;99.90;;;;;;5026169;28;20173;-56
2022/10/15 00:51:46;;;;;;;20.30;14.35;;;12.70;99.90;;;;;;5024394;28;20032;-58
2022/10/15 00:54:13;;;;;;;20.45;14.35;;;12.60;99.90;;;;;;5026381;28;20080;-56
2022/10/15 00:56:42;;;;;;;23.45;13.70;;;12.60;99.90;;;;;;5024694;28;20152;-59
2022/10/15 00:59:10;;;;;;;19.50;13.50;;;12.60;99.90;;;;;;5026015;28;20497;-56
2022/10/15 01:01:36;;;;;;;20.65;12.98;;;12.60;99.90;;;;;;5025885;28;20140;-58
2022/10/15 01:04:03;;;;;;;22.13;14.35;;;12.60;99.90;;;;;;5025859;28;20116;-57
2022/10/15 01:06:29;;;;;;;17.98;12.88;;;12.60;99.90;;;;;;5024530;28;20087;-57
2022/10/15 01:08:55;;;;;;;19.08;13.65;;;12.60;99.90;;;;;;5024151;28;20034;-56
2022/10/15 01:11:30;;;;;;;18.75;12.35;;;12.60;99.90;;;;;;5024350;28;20033;-57
2022/10/15 01:14:36;;;;;;;22.30;13.52;;;12.60;99.90;;;;;;5024339;28;20025;-57
2022/10/15 01:17:37;;;;;;;19.48;13.57;;;12.60;99.90;;;;;;5024452;28;20040;-57
2022/10/15 01:20:29;;;;;;;15.80;11.93;;;12.60;99.90;;;;;;5028680;28;20029;-58
2022/10/15 01:23:19;;;;;;;19.65;13.40;;;12.60;99.90;;;;;;5029469;28;20047;-58
2022/10/15 01:26:21;;;;;;;15.05;10.75;;;12.60;99.90;;;;;;5029255;28;20033;-58
2022/10/15 01:29:17;;;;;;;19.42;12.00;;;12.60;99.90;;;;;;5029461;28;20044;-56
2022/10/15 01:31:59;;;;;;;21.88;13.38;;;12.70;99.90;;;;;;5029145;28;20060;-59
2022/10/15 01:34:32;;;;;;;19.60;13.50;;;12.70;99.90;;;;;;5029094;28;20033;-57
2022/10/15 01:37:20;;;;;;;20.13;13.02;;;12.70;99.90;;;;;;5029777;28;20029;-59
2022/10/15 01:39:53;;;;;;;21.45;13.90;;;12.70;99.90;;;;;;5027800;28;20296;-57
2022/10/15 01:42:29;;;;;;;18.60;12.50;;;12.70;99.90;;;;;;5027682;28;20788;-57
2022/10/15 01:45:01;;;;;;;25.02;13.15;;;12.80;99.90;;;;;;5027516;28;20127;-56
2022/10/15 01:47:36;;;;;;;16.98;11.20;;;12.70;99.90;;;;;;5027480;28;20033;-57
2022/10/15 01:50:04;;;;;;;19.63;13.77;;;12.70;99.90;;;;;;5026065;28;20044;-58
2022/10/15 01:52:33;;;;;;;22.27;14.10;;;12.80;99.90;;;;;;5025408;28;20079;-57
2022/10/15 01:55:01;;;;;;;23.08;13.75;;;12.70;99.90;;;;;;5028720;28;20083;-57
2022/10/15 01:57:29;;;;;;;19.23;13.05;;;12.70;99.90;;;;;;5016944;28;20032;-57
2022/10/15 01:59:55;;;;;;;17.27;11.55;;;12.70;99.90;;;;;;5009261;28;20036;-56
2022/10/15 02:02:20;;;;;;;21.13;13.70;;;12.70;99.90;;;;;;5008940;28;20054;-56
2022/10/15 02:04:46;;;;;;;17.80;12.80;;;12.70;99.90;;;;;;5009064;28;20030;-57
2022/10/15 02:07:55;;;;;;;19.05;13.05;;;12.70;99.90;;;;;;5008726;28;20088;-56
2022/10/15 02:10:29;;;;;;;19.92;13.55;;;12.70;99.90;;;;;;5008585;28;20137;-57
2022/10/15 02:13:12;;;;;;;19.08;12.98;;;12.70;99.90;;;;;;5008879;28;20038;-56
2022/10/15 02:16:01;;;;;;;22.48;13.77;;;12.70;99.90;;;;;;5009209;28;20096;-56
2022/10/15 02:18:59;;;;;;;19.02;12.65;;;12.70;99.90;;;;;;5029591;28;20087;-58
2022/10/15 02:21:35;;;;;;;21.58;13.23;;;12.70;99.90;;;;;;5029497;28;20124;-58
2022/10/15 02:24:04;;;;;;;21.08;14.05;;;12.70;99.90;;;;;;5029767;28;20029;-58
2022/10/15 02:26:29;;;;;;;20.05;14.13;;;12.70;99.90;;;;;;5030657;28;20026;-58
2022/10/15 02:28:58;;;;;;;18.48;12.85;;;12.80;99.90;;;;;;5030480;28;20025;-58
2022/10/15 02:31:25;;;;;;;16.48;11.77;;;12.80;99.90;;;;;;5030660;28;20084;-58
2022/10/15 02:33:56;;;;;;;17.75;12.38;;;12.80;99.90;;;;;;5030677;28;20104;-58
2022/10/15 02:36:22;;;;;;;24.40;13.55;;;12.80;99.90;;;;;;5030463;28;20037;-58
2022/10/15 02:38:50;;;;;;;25.20;16.92;;;12.80;99.90;;;;;;5030544;28;20033;-57
2022/10/15 02:41:16;;;;;;;20.60;13.70;;;12.80;99.90;;;;;;5030286;28;20034;-58
2022/10/15 02:43:42;;;;;;;18.33;12.98;;;12.80;99.90;;;;;;5030255;28;20025;-58
2022/10/15 02:46:11;;;;;;;20.08;12.80;;;12.80;99.90;;;;;;5029058;28;20022;-58
2022/10/15 02:48:36;;;;;;;19.65;13.40;;;12.80;99.90;;;;;;5030295;28;20033;-55
2022/10/15 02:51:03;;;;;;;16.35;10.35;;;12.80;99.90;;;;;;5030263;28;20449;-57
2022/10/15 02:53:29;;;;;;;19.88;14.05;;;12.80;99.90;;;;;;5030225;28;20036;-57
2022/10/15 02:55:54;;;;;;;17.75;11.82;;;12.80;99.90;;;;;;5030237;28;20519;-56
2022/10/15 02:58:19;;;;;;;19.38;13.38;;;12.80;99.90;;;;;;5030059;28;20180;-56
2022/10/15 03:00:45;;;;;;;20.63;13.02;;;12.90;99.90;;;;;;5029756;28;20049;-56
2022/10/15 03:03:10;;;;;;;19.60;13.50;;;12.80;99.90;;;;;;5029859;28;20092;-57
2022/10/15 03:05:36;;;;;;;20.38;14.10;;;12.90;99.90;;;;;;5029799;28;20040;-57
2022/10/15 03:08:01;;;;;;;20.33;12.73;;;12.90;99.90;;;;;;5029612;28;20049;-57
2022/10/15 03:10:27;;;;;;;19.83;11.35;;;12.90;99.90;;;;;;5029611;28;20040;-57
2022/10/15 03:12:52;;;;;;;15.95;11.15;;;12.90;99.90;;;;;;5029619;28;20131;-58
2022/10/15 03:15:18;;;;;;;15.75;11.27;;;13.00;99.90;;;;;;5029472;28;20029;-56
2022/10/15 03:17:43;;;;;;;18.17;11.07;;;13.00;99.90;;;;;;5029503;28;20044;-57
2022/10/15 03:20:09;;;;;;;20.25;12.90;;;13.00;99.90;;;;;;5029588;28;20034;-55
2022/10/15 03:22:34;;;;;;;15.90;11.48;;;13.00;99.90;;;;;;5029320;28;20077;-57
2022/10/15 03:25:00;;;;;;;13.52;10.07;;;13.00;99.90;;;;;;5028656;28;20486;-57
2022/10/15 03:27:25;;;;;;;18.27;10.65;;;13.00;99.90;;;;;;5027886;28;20057;-56
2022/10/15 03:29:51;;;;;;;16.40;11.07;;;13.00;99.90;;;;;;5027832;28;20406;-56
2022/10/15 03:32:16;;;;;;;13.75;10.45;;;13.00;99.90;;;;;;5027504;28;20104;-57
2022/10/15 03:34:42;;;;;;;19.92;10.93;;;13.00;99.90;;;;;;5027419;28;20052;-58
2022/10/15 03:37:07;;;;;;;15.95;10.65;;;13.00;99.90;;;;;;5027718;28;20111;-57
2022/10/15 03:39:33;;;;;;;17.55;11.13;;;13.00;99.90;;;;;;5027876;28;20037;-57
2022/10/15 03:41:58;;;;;;;16.60;10.07;;;13.00;99.90;;;;;;5028445;28;20370;-57
2022/10/15 03:44:24;;;;;;;14.10;10.50;;;13.00;99.90;;;;;;5029069;28;20061;-56
2022/10/15 03:46:49;;;;;;;18.55;11.60;;;13.00;99.90;;;;;;5029160;28;20028;-57
2022/10/15 03:49:15;;;;;;;17.95;11.18;;;13.00;99.90;;;;;;5029502;28;20507;-57
2022/10/15 03:51:40;;;;;;;16.50;11.23;;;13.00;99.90;;;;;;5029129;28;20083;-56
2022/10/15 03:54:06;;;;;;;14.75;9.95;;;13.00;99.90;;;;;;5029215;28;20215;-58
2022/10/15 03:56:31;;;;;;;16.33;11.45;;;13.00;99.90;;;;;;5028998;28;20462;-57
2022/10/15 03:58:57;;;;;;;14.38;10.43;;;13.10;99.90;;;;;;5029021;28;20041;-58
2022/10/15 04:01:22;;;;;;;15.93;9.98;;;13.10;99.90;;;;;;5028985;28;20104;-58
2022/10/15 04:03:52;;;;;;;16.27;11.82;;;13.10;99.90;;;;;;5029124;28;20121;-58
2022/10/15 04:06:17;;;;;;;15.68;11.32;;;13.00;99.90;;;;;;5029121;28;20497;-58
2022/10/15 04:08:43;;;;;;;15.68;11.25;;;13.00;99.90;;;;;;5029074;28;20026;-58
2022/10/15 04:11:08;;;;;;;17.42;11.25;;;13.00;99.90;;;;;;5028801;28;20121;-57
2022/10/15 04:13:34;;;;;;;16.95;10.05;;;13.00;99.90;;;;;;5028848;28;20092;-56
2022/10/15 04:15:59;;;;;;;16.05;11.05;;;13.00;99.90;;;;;;5028948;28;20460;-56
2022/10/15 04:18:25;;;;;;;15.23;9.85;;;13.00;99.90;;;;;;5028765;28;20025;-59
2022/10/15 04:20:50;;;;;;;13.75;9.27;;;13.10;99.90;;;;;;5028799;28;20512;-57
2022/10/15 04:23:16;;;;;;;12.98;9.55;;;13.00;99.90;;;;;;5028823;28;20030;-58
2022/10/15 04:25:42;;;;;;;12.50;8.48;;;13.10;99.90;;;;;;5028774;28;20113;-56
2022/10/15 04:28:08;;;;;;;14.32;9.90;;;13.10;99.90;;;;;;5028833;28;20029;-57
2022/10/15 04:30:33;;;;;;;13.88;10.13;;;13.10;99.90;;;;;;5028778;28;20036;-57
2022/10/15 04:32:59;;;;;;;18.00;10.70;;;13.10;99.90;;;;;;5028837;28;20033;-56
2022/10/15 04:35:24;;;;;;;14.02;10.15;;;13.10;99.90;;;;;;5028627;28;20037;-58
2022/10/15 04:37:50;;;;;;;14.40;9.95;;;13.10;99.90;;;;;;5028665;28;20071;-57
2022/10/15 04:40:17;;;;;;;15.90;9.82;;;13.10;99.90;;;;;;5028554;28;20083;-57
2022/10/15 04:42:42;;;;;;;17.52;10.27;;;13.10;99.90;;;;;;5028468;28;20033;-57
2022/10/15 04:45:08;;;;;;;14.52;9.95;;;13.10;99.90;;;;;;5028645;28;20033;-57
2022/10/15 04:47:33;;;;;;;12.95;8.95;;;13.10;99.90;;;;;;5028587;28;20021;-58
2022/10/15 04:49:59;;;;;;;16.10;10.40;;;13.10;99.90;;;;;;5028758;28;20043;-57
2022/10/15 04:52:24;;;;;;;14.18;10.02;;;13.20;99.90;;;;;;5030251;28;20034;-56
2022/10/15 04:54:50;;;;;;;14.73;10.23;;;13.20;99.90;;;;;;5032610;28;20025;-55
2022/10/15 04:57:15;;;;;;;13.77;9.15;;;13.20;99.90;;;;;;5032578;28;20036;-56
2022/10/15 04:59:42;;;;;;;13.60;9.77;;;13.20;99.90;;;;;;5032395;28;20506;-57
2022/10/15 05:02:07;;;;;;;17.23;10.93;;;13.20;99.90;;;;;;5032194;28;20052;-57
2022/10/15 05:04:33;;;;;;;18.73;11.40;;;13.20;99.90;;;;;;5032288;28;20439;-57
2022/10/15 05:06:58;;;;;;;14.25;10.45;;;13.20;99.90;;;;;;5032313;28;20060;-58
2022/10/15 05:09:24;;;;;;;14.55;10.55;;;13.30;99.90;;;;;;5032316;28;20075;-58
2022/10/15 05:11:49;;;;;;;13.23;9.43;;;13.30;99.90;;;;;;5032258;28;20032;-58
2022/10/15 05:14:15;;;;;;;16.15;10.30;;;13.30;99.90;;;;;;5032296;28;20389;-57
2022/10/15 05:16:41;;;;;;;14.75;9.90;;;13.30;99.90;;;;;;5032234;28;20675;-57
2022/10/15 05:19:08;;;;;;;14.93;11.00;;;13.30;99.90;;;;;;5032314;28;20021;-57
2022/10/15 05:21:34;;;;;;;15.45;9.90;;;13.30;99.90;;;;;;5032098;28;20401;-58
2022/10/15 05:24:00;;;;;;;13.50;9.18;;;13.30;99.90;;;;;;5031957;28;20030;-58
2022/10/15 05:26:28;;;;;;;12.27;8.82;;;13.40;99.90;;;;;;5031929;28;20393;-58
2022/10/15 05:28:56;;;;;;;14.73;9.55;;;13.40;99.90;;;;;;5032038;28;20063;-59
2022/10/15 05:31:23;;;;;;;15.23;9.90;;;13.40;99.90;;;;;;5031986;28;20075;-57
2022/10/15 05:33:50;;;;;;;12.15;8.80;;;13.30;99.90;;;;;;5032010;28;20047;-58
2022/10/15 05:36:28;;;;;;;13.82;9.55;;;13.40;99.90;;;;;;5031993;28;20163;-58
2022/10/15 05:38:58;;;;;;;12.38;9.43;;;13.40;99.90;;;;;;5031945;28;20575;-58
2022/10/15 05:41:25;;;;;;;14.30;9.65;;;13.40;99.90;;;;;;5031808;28;20728;-58
2022/10/15 05:43:54;;;;;;;14.15;9.63;;;13.40;99.90;;;;;;5031905;28;20036;-57
2022/10/15 05:46:19;;;;;;;12.57;9.32;;;13.40;99.90;;;;;;5031829;28;20048;-57
2022/10/15 05:48:53;;;;;;;13.82;9.40;;;13.40;99.90;;;;;;5031707;28;20108;-58
2022/10/15 05:51:19;;;;;;;11.48;8.90;;;13.50;99.90;;;;;;5031684;28;20511;-57
2022/10/15 05:53:45;;;;;;;12.13;9.35;;;13.40;99.90;;;;;;5031529;28;20036;-58
2022/10/15 05:56:11;;;;;;;13.63;8.93;;;13.50;99.90;;;;;;5031584;28;20036;-58
2022/10/15 05:58:37;;;;;;;12.30;8.93;;;13.50;99.90;;;;;;5031402;28;20095;-58
2022/10/15 06:01:06;;;;;;;13.60;8.43;;;13.50;99.90;;;;;;5031585;28;20046;-57
2022/10/15 06:03:32;;;;;;;13.90;9.30;;;13.60;99.90;;;;;;5030409;28;20057;-58
2022/10/15 06:05:58;;;;;;;12.55;8.35;;;13.50;99.90;;;;;;5031313;28;20689;-58
2022/10/15 06:08:23;;;;;;;13.30;8.70;;;13.60;99.90;;;;;;5031179;28;20025;-55
2022/10/15 06:10:49;;;;;;;10.27;7.85;;;13.60;99.90;;;;;;5031269;28;20059;-57
2022/10/15 06:13:15;;;;;;;11.25;7.82;;;13.70;99.90;;;;;;5031324;28;20104;-56
2022/10/15 06:15:42;;;;;;;10.65;7.55;;;13.60;99.90;;;;;;5031033;28;20065;-56
2022/10/15 06:18:09;;;;;;;10.00;7.78;;;13.70;99.90;;;;;;5031134;28;20026;-55
2022/10/15 06:20:36;;;;;;;11.40;7.60;;;13.70;99.90;;;;;;5030823;28;20096;-57
2022/10/15 06:23:02;;;;;;;12.43;9.13;;;13.70;99.90;;;;;;5030893;28;20033;-57
2022/10/15 06:25:28;;;;;;;12.98;8.85;;;13.80;99.90;;;;;;5029535;28;20367;-56
2022/10/15 06:27:53;;;;;;;14.45;10.38;;;13.80;99.90;;;;;;5030806;28;20074;-55
2022/10/15 06:30:20;;;;;;;14.73;10.15;;;13.90;99.90;;;;;;5030931;28;20029;-56
2022/10/15 06:32:50;;;;;;;15.38;9.30;;;13.90;99.90;;;;;;5030768;28;20486;-52
2022/10/15 06:35:16;;;;;;;12.45;7.93;;;14.00;99.90;;;;;;5030659;28;20029;-54
2022/10/15 06:37:42;;;;;;;13.57;9.02;;;14.10;99.90;;;;;;5030707;28;20428;-55
2022/10/15 06:40:08;;;;;;;11.38;7.78;;;14.20;99.90;;;;;;5030530;28;20164;-56
2022/10/15 06:42:33;;;;;;;10.68;8.13;;;14.30;99.90;;;;;;5030410;28;20052;-53
2022/10/15 06:44:59;;;;;;;7.63;6.38;;;14.40;99.90;;;;;;5030703;28;20482;-56
2022/10/15 06:47:24;;;;;;;10.93;7.55;;;14.50;99.90;;;;;;5030371;28;20018;-54
2022/10/15 06:49:50;;;;;;;9.45;6.82;;;14.50;99.90;;;;;;5030494;28;20036;-55
2022/10/15 06:52:15;;;;;;;10.10;7.63;;;14.60;99.90;;;;;;5030414;28;20028;-57
2022/10/15 06:54:41;;;;;;;10.57;7.65;;;14.60;99.90;;;;;;5030120;28;20501;-54
2022/10/15 06:57:06;;;;;;;12.93;8.35;;;14.60;99.90;;;;;;5030446;28;20330;-55
2022/10/15 06:59:31;;;;;;;9.23;7.90;;;14.60;99.90;;;;;;5030029;28;20025;-58
2022/10/15 07:01:57;;;;;;;11.32;7.72;;;14.70;99.90;;;;;;5029856;28;20049;-56
2022/10/15 07:04:23;;;;;;;11.50;8.20;;;14.70;99.90;;;;;;5028831;28;20096;-57
2022/10/15 07:06:48;;;;;;;11.80;7.45;;;14.80;99.90;;;;;;5027101;28;20118;-53
2022/10/15 07:09:14;;;;;;;9.65;7.50;;;14.80;99.90;;;;;;5028053;28;20041;-53
2022/10/15 07:11:39;;;;;;;11.15;7.18;;;14.90;99.90;;;;;;5028022;28;20362;-57
2022/10/15 07:14:05;;;;;;;10.48;7.80;;;14.90;99.90;;;;;;5027274;28;20045;-56
2022/10/15 07:16:31;;;;;;;9.45;6.75;;;14.90;99.90;;;;;;5026840;28;20026;-54
2022/10/15 07:18:56;;;;;;;10.50;7.88;;;15.00;99.90;;;;;;5028473;28;20026;-50
2022/10/15 07:21:22;;;;;;;10.55;7.78;;;15.00;99.90;;;;;;5028812;28;20042;-52
2022/10/15 07:23:47;;;;;;;10.10;6.70;;;15.10;99.90;;;;;;5028807;28;20033;-51
2022/10/15 07:26:13;;;;;;;10.18;7.53;;;15.10;99.90;;;;;;5028240;28;20152;-51
2022/10/15 07:28:38;;;;;;;9.30;6.88;;;15.20;99.90;;;;;;5028806;28;20035;-48
2022/10/15 07:31:06;;;;;;;8.23;6.82;;;15.30;99.90;;;;;;5028945;28;20160;-53
2022/10/15 07:33:35;;;;;;;9.02;6.65;;;15.40;99.90;;;;;;5028779;28;20026;-51
2022/10/15 07:36:05;;;;;;;10.10;6.97;;;15.40;99.90;;;;;;5028711;28;20032;-53
2022/10/15 07:38:40;;;;;;;9.43;6.60;;;15.40;99.90;;;;;;5138094;27;20128;-52
2022/10/15 07:41:06;;;;;;;9.98;6.90;;;15.40;99.90;;;;;;5105656;28;20027;-51
2022/10/15 07:43:33;;;;;;;8.68;6.63;;;15.40;99.90;;;;;;5105332;27;20028;-52
2022/10/15 07:45:59;;;;;;;8.60;6.53;;;15.40;99.90;;;;;;5105633;28;20177;-50
2022/10/15 07:48:24;;;;;;;10.18;7.43;;;15.40;99.90;;;;;;5105262;28;20095;-51
2022/10/15 07:50:58;;;;;;;8.13;6.43;;;15.40;99.90;;;;;;5105073;28;20023;-52
2022/10/15 07:53:24;;;;;;;8.82;6.70;;;15.40;99.90;;;;;;5105517;28;20439;-54
2022/10/15 07:55:50;;;;;;;8.77;7.00;;;15.50;99.90;;;;;;5104142;28;20045;-52
2022/10/15 07:58:16;;;;;;;10.90;7.13;;;15.70;99.90;;;;;;5105184;28;20263;-48
2022/10/15 08:00:41;;;;;;;10.63;5.68;;;15.80;99.90;;;;;;5105080;28;20244;-50
2022/10/15 08:03:07;;;;;;;7.47;5.68;;;16.10;99.90;;;;;;5105134;28;20446;-50
2022/10/15 08:05:33;;;;;;;7.57;6.15;;;16.20;99.90;;;;;;5105277;28;20578;-51
2022/10/15 08:07:59;;;;;;;8.32;5.75;;;16.40;99.90;;;;;;5105105;28;20035;-51
2022/10/15 08:10:24;;;;;;;8.82;6.00;;;16.60;99.90;;;;;;5105077;28;20531;-50
2022/10/15 08:12:50;;;;;;;8.45;5.32;;;16.80;99.90;;;;;;5104974;28;20102;-52
2022/10/15 08:15:15;;;;;;;8.57;5.10;;;16.90;99.90;;;;;;5103352;28;20047;-52
2022/10/15 08:17:41;;;;;;;7.28;6.47;;;17.00;99.90;;;;;;5104911;28;20122;-53
2022/10/15 08:20:07;;;;;;;6.80;4.97;;;17.00;99.90;;;;;;5105009;28;20162;-55
2022/10/15 08:22:33;;;;;;;8.07;5.57;;;17.10;99.90;;;;;;5104728;28;20096;-52
2022/10/15 08:24:58;;;;;;;7.18;5.72;;;17.20;99.90;;;;;;5104708;28;20024;-49
2022/10/15 08:27:24;;;;;;;5.70;5.10;;;17.20;99.90;;;;;;5104280;28;20030;-53
2022/10/15 08:29:49;;;;;;;7.28;5.30;;;17.40;99.90;;;;;;5104899;28;20036;-53
2022/10/15 08:32:15;;;;;;;6.10;5.22;;;17.50;99.90;;;;;;5104696;28;20482;-52
2022/10/15 08:34:40;;;;;;;7.18;5.72;;;17.60;99.90;;;;;;5104715;28;20032;-53
2022/10/15 08:37:06;;;;;;;6.70;5.80;;;17.80;99.90;;;;;;5104311;28;20119;-45
2022/10/15 08:39:31;;;;;;;6.97;5.00;;;17.80;99.90;;;;;;5103955;28;20106;-44
2022/10/15 08:42:03;;;;;;;5.30;4.68;;;18.00;99.90;;;;;;5103189;28;20032;-44
2022/10/15 08:44:32;;;;;;;7.90;5.13;;;18.10;99.90;;;;;;5104283;28;20351;-44
2022/10/15 08:47:01;;;;;;;5.68;4.97;;;18.10;99.90;;;;;;5104244;28;20077;-46
2022/10/15 08:49:43;;;;;;;6.47;4.38;;;18.20;99.90;;;;;;5093772;28;20024;-47
2022/10/15 08:52:39;;;;;;;6.80;4.55;;;18.30;99.90;;;;;;5090576;28;20016;-44
2022/10/15 08:55:05;;;;;;;4.90;4.20;;;18.40;99.90;;;;;;5090775;28;20024;-44
2022/10/15 08:57:59;;;;;;;5.00;4.47;;;18.50;99.90;;;;;;5090510;28;20046;-45
2022/10/15 09:00:31;;;;;;;5.93;4.35;;;18.60;99.90;;;;;;5090431;28;20027;-46
2022/10/15 09:03:10;;;;;;;5.25;4.50;;;18.60;99.90;;;;;;5090370;28;20016;-45
2022/10/15 09:05:43;;;;;;;4.70;4.20;;;18.50;99.90;;;;;;5090539;28;20031;-45
2022/10/15 09:08:47;;;;;;;5.88;5.07;;;18.70;99.90;;;;;;5090677;28;20028;-45
2022/10/15 09:11:34;;;;;;;6.13;5.38;;;18.90;99.90;;;;;;5090617;28;20044;-45
2022/10/15 09:14:03;;;;;;;5.30;4.47;;;19.10;99.90;;;;;;5090378;28;20024;-45
2022/10/15 09:16:34;;;;;;;5.63;4.70;;;19.20;99.90;;;;;;5090003;28;20016;-44
2022/10/15 09:19:03;;;;;;;4.13;3.72;;;19.20;99.90;;;;;;5090377;28;20102;-45
2022/10/15 09:21:30;;;;;;;6.22;4.53;;;19.30;99.90;;;;;;5090606;28;20020;-45
2022/10/15 09:23:59;;;;;;;5.35;4.53;;;19.40;99.90;;;;;;5090105;28;20099;-46
2022/10/15 09:26:32;;;;;;;5.93;4.97;;;19.50;99.90;;;;;;5089641;28;20531;-45
2022/10/15 09:29:18;;;;;;;6.13;4.72;;;19.50;99.90;;;;;;5089875;28;20085;-45
2022/10/15 09:31:51;;;;;;;5.45;4.93;;;19.50;99.90;;;;;;5090148;28;20016;-44
2022/10/15 09:34:48;;;;;;;5.35;4.50;;;19.40;99.90;;;;;;5090130;28;20020;-44
2022/10/15 09:37:27;;;;;;;5.13;4.38;;;19.40;99.90;;;;;;5089853;28;20040;-44
2022/10/15 09:40:10;;;;;;;5.57;4.32;;;19.20;99.90;;;;;;5089486;28;20024;-45
2022/10/15 09:42:39;;;;;;;7.60;5.60;;;19.10;99.90;;;;;;5089962;28;20059;-44
2022/10/15 09:45:10;;;;;;;5.60;5.03;;;19.00;99.90;;;;;;5090144;28;20024;-45
2022/10/15 09:47:38;;;;;;;7.20;5.40;;;18.90;99.90;;;;;;5089928;28;20498;-44
2022/10/15 09:50:05;;;;;;;8.05;4.78;;;18.90;99.90;;;;;;5089245;28;20518;-45
2022/10/15 09:52:54;;;;;;;5.88;5.28;;;18.80;99.90;;;;;;5089011;28;20039;-44
2022/10/15 09:55:36;;;;;;;4.93;4.13;;;18.90;99.90;;;;;;5089632;28;20472;-45
2022/10/15 09:58:18;;;;;;;5.53;4.95;;;18.90;99.90;;;;;;5089485;28;20040;-44
2022/10/15 10:00:51;;;;;;;5.65;4.35;;;19.00;99.90;;;;;;5087826;28;20020;-44
2022/10/15 10:03:17;;;;;;;4.95;4.07;;;19.20;99.90;;;;;;5081554;28;20025;-45
2022/10/15 10:05:44;;;;;;;5.57;4.25;;;19.40;99.90;;;;;;5068340;28;20119;-45
2022/10/15 10:08:33;;;;;;;5.60;4.28;;;19.40;99.90;;;;;;5068991;28;20021;-46
2022/10/15 10:11:01;;;;;;;6.10;4.30;;;19.30;96.60;;;;;;5069828;28;20126;-44
2022/10/15 10:13:31;;;;;;;5.65;4.55;;;19.40;99.90;;;;;;5069718;28;20320;-44
2022/10/15 10:16:03;;;;;;;4.80;4.20;;;19.40;99.90;;;;;;5069922;28;20103;-44
2022/10/15 10:18:30;;;;;;;4.60;4.20;;;19.70;99.90;;;;;;5069545;28;20024;-47
2022/10/15 10:21:02;;;;;;;3.80;3.40;;;19.90;99.90;;;;;;5069689;28;20104;-45
2022/10/15 10:23:33;;;;;;;4.22;3.83;;;20.20;99.90;;;;;;5068328;28;20037;-50
2022/10/15 10:26:03;;;;;;;3.78;3.42;;;20.40;97.80;;;;;;5069572;28;20024;-50
2022/10/15 10:28:52;;;;;;;3.97;3.58;;;20.60;97.60;;;;;;5069215;28;20047;-45
2022/10/15 10:31:25;;;;;;;3.67;3.00;;;20.60;91.10;;;;;;5069441;28;20028;-46
2022/10/15 10:33:51;;;;;;;3.03;2.72;;;20.50;90.20;;;;;;5069384;28;20025;-50
2022/10/15 10:36:28;;;;;;;7.63;3.20;;;20.30;93.80;;;;;;5085546;28;20158;-49
2022/10/15 10:39:14;;;;;;;3.17;2.88;;;20.30;93.70;;;;;;5089482;28;20031;-46
2022/10/15 10:41:59;;;;;;;3.53;3.22;;;20.30;90.40;;;;;;5089361;28;20028;-45
2022/10/15 10:44:34;;;;;;;4.07;3.67;;;20.30;89.30;;;;;;5089426;28;20032;-48
2022/10/15 10:47:07;;;;;;;5.05;3.70;;;20.30;91.60;;;;;;5089492;28;20408;-47
2022/10/15 10:49:43;;;;;;;4.45;3.65;;;20.30;85.40;;;;;;5089782;28;20060;-53
2022/10/15 10:52:18;;;;;;;6.18;3.67;;;20.20;91.90;;;;;;5089384;28;20030;-50
2022/10/15 10:54:45;;;;;;;4.63;3.97;;;20.20;92.80;;;;;;5089092;28;20024;-53
2022/10/15 10:57:13;;;;;;;4.95;3.80;;;20.20;92.50;;;;;;5089385;28;20028;-50
2022/10/15 10:59:49;;;;;;;3.25;2.95;;;20.30;88.60;;;;;;5089425;28;20030;-52
2022/10/15 11:02:14;;;;;;;;;;;20.20;92.50;;;;;;5089802;28;20178;-53
2022/10/15 11:04:40;;;;;;;4.80;3.60;;;20.20;88.90;;;;;;5088988;28;19915;-53
2022/10/15 11:07:23;;;;;;;2.88;2.67;;;20.20;93.40;;;;;;5089054;28;20099;-54
2022/10/15 11:10:22;;;;;;;5.05;3.47;;;20.20;93.90;;;;;;5089044;28;20028;-53
2022/10/15 11:13:17;;;;;;;6.22;3.40;;;20.20;92.30;;;;;;5088384;28;20111;-49
2022/10/15 11:16:10;;;;;;;4.10;3.22;;;20.20;91.90;;;;;;5087746;28;20387;-53
2022/10/15 11:19:03;;;;;;;3.28;2.97;;;20.30;93.70;;;;;;5088602;28;20483;-47
2022/10/15 11:22:01;;;;;;;4.93;3.20;;;20.30;93.50;;;;;;5088956;28;20043;-51
2022/10/15 11:24:47;;;;;;;2.92;2.58;;;20.30;93.00;;;;;;5088871;28;20111;-48
2022/10/15 11:27:45;;;;;;;2.95;2.65;;;20.30;93.50;;;;;;5085911;28;20095;-49
2022/10/15 11:30:25;;;;;;;3.75;2.95;;;20.40;90.40;;;;;;5087021;28;20115;-49
2022/10/15 11:33:12;;;;;;;4.35;2.72;;;20.30;92.80;;;;;;5087563;28;20111;-54
2022/10/15 11:35:49;;;;;;;5.07;3.03;;;20.40;93.20;;;;;;5088015;28;20032;-51
2022/10/15 11:38:44;;;;;;;3.63;2.60;;;20.60;91.90;;;;;;5086733;28;20044;-52
2022/10/15 11:41:42;;;;;;;3.30;2.95;;;20.60;88.50;;;;;;5087842;28;20043;-50
2022/10/15 11:44:22;;;;;;;3.30;3.00;;;20.50;86.30;;;;;;5087708;28;20039;-52
2022/10/15 11:47:10;;;;;;;3.22;2.78;;;20.50;91.70;;;;;;5087806;28;20059;-50
2022/10/15 11:50:09;;;;;;;3.30;2.30;;;20.40;86.70;;;;;;5087734;28;20027;-49
2022/10/15 11:52:59;;;;;;;2.67;2.47;;;20.40;84.50;;;;;;5087629;28;20028;-52
2022/10/15 11:55:38;;;;;;;2.30;2.10;;;20.40;89.80;;;;;;5087274;28;20024;-55
2022/10/15 11:58:12;;;;;;;2.30;2.10;;;20.50;90.20;;;;;;5087515;28;20451;-51
2022/10/15 12:00:49;;;;;;;2.88;2.30;;;20.60;87.80;;;;;;5087612;28;20101;-54
2022/10/15 12:03:22;;;;;;;2.42;2.20;;;20.50;88.00;;;;;;5087677;28;20388;-52
2022/10/15 12:05:55;;;;;;;2.10;1.90;;;20.50;88.50;;;;;;5087590;28;20430;-51
2022/10/15 12:08:25;;;;;;;3.97;2.50;;;20.60;89.10;;;;;;5087052;28;20035;-52
2022/10/15 12:11:23;;;;;;;2.30;2.13;;;20.60;88.40;;;;;;5087590;28;20032;-49
2022/10/15 12:14:01;;;;;;;1.95;1.80;;;20.60;85.70;;;;;;5088113;28;20181;-52
2022/10/15 12:16:32;;;;;;;2.95;1.55;;;20.50;86.60;;;;;;5088254;28;20024;-52
2022/10/15 12:19:17;;;;;;;1.75;1.65;;;20.50;88.00;;;;;;5088054;28;20024;-49
2022/10/15 12:21:55;;;;;;;2.40;1.85;;;20.50;87.40;;;;;;5088484;28;20016;-51
2022/10/15 12:24:50;;;;;;;3.08;2.40;;;20.50;87.60;;;;;;5090252;28;20430;-52
2022/10/15 12:27:18;;;;;;;2.75;2.17;;;20.40;84.30;;;;;;5092503;28;20035;-51
2022/10/15 12:29:50;;;;;;;3.05;2.08;;;20.40;88.00;;;;;;5091992;28;20460;-48
2022/10/15 12:32:27;;;;;;;2.05;1.83;;;20.40;88.60;;;;;;5091786;28;20032;-50
2022/10/15 12:34:55;;;;;;;2.40;2.00;;;20.40;88.90;;;;;;5092088;28;20051;-51
2022/10/15 12:37:23;;;;;;;2.70;1.90;;;20.40;89.10;;;;;;5091664;28;20059;-49
2022/10/15 12:39:57;;;;;;;2.63;2.00;;;20.30;87.80;;;;;;5091907;28;20028;-52
2022/10/15 12:42:27;;;;;;;1.80;1.70;;;20.20;89.10;;;;;;5091864;28;20032;-53
2022/10/15 12:44:54;;;;;;;1.75;1.65;;;20.20;89.50;;;;;;5091765;28;20483;-50
2022/10/15 12:47:45;;;;;;;2.30;2.10;;;20.20;90.40;;;;;;5091843;28;20020;-51
2022/10/15 12:50:20;;;;;;;4.18;1.98;;;20.30;86.80;;;;;;5091884;28;20024;-53
2022/10/15 12:52:58;;;;;;;2.00;1.73;;;20.30;86.00;;;;;;5091659;28;20034;-50
2022/10/15 12:55:27;;;;;;;1.80;1.70;;;20.30;87.30;;;;;;5091579;28;20502;-54
2022/10/15 12:57:56;;;;;;;2.15;1.83;;;20.40;89.50;;;;;;5091648;28;20101;-50
2022/10/15 13:00:24;;;;;;;2.97;1.98;;;20.30;87.90;;;;;;5091748;28;20027;-51